sensor_id;sensor_type;location;lat;lon;timestamp;temperature;humidity
25512;DHT22;13414;44.534;18.700;2023-04-03T00:00:45;9.80;99.90
25512;DHT22;13414;44.534;18.700;2023-04-03T00:03:12;9.80;99.90
25512;DHT22;13414;44.534;18.700;2023-04-03T00:05:40;9.80;99.90
25512;DHT22;13414;44.534;18.700;2023-04-03T00:08:07;9.90;99.90
25512;DHT22;13414;44.534;18.700;2023-04-03T00:10:37;9.90;99.90
25512;DHT22;13414;44.534;18.700;2023-04-03T00:13:05;9.90;99.90
25512;DHT22;13414;44.534;18.700;2023-04-03T00:15:34;9.90;99.90
25512;DHT22;13414;44.534;18.700;2023-04-03T00:18:02;9.90;99.90
25512;DHT22;13414;44.534;18.700;2023-04-03T00:20:29;10.00;99.90
25512;DHT22;13414;44.534;18.700;2023-04-03T00:22:58;10.00;99.90
25512;DHT22;13414;44.534;18.700;2023-04-03T00:25:25;10.10;99.90
25512;DHT22;13414;44.534;18.700;2023-04-03T00:27:55;10.10;99.90
25512;DHT22;13414;44.534;18.700;2023-04-03T00:30:22;10.10;99.90
25512;DHT22;13414;44.534;18.700;2023-04-03T00:32:51;10.10;99.90
25512;DHT22;13414;44.534;18.700;2023-04-03T00:35:20;10.10;99.90
25512;DHT22;13414;44.534;18.700;2023-04-03T00:37:48;10.10;99.90
25512;DHT22;13414;44.534;18.700;2023-04-03T00:40:15;10.10;99.90
25512;DHT22;13414;44.534;18.700;2023-04-03T00:42:44;10.00;99.90
25512;DHT22;13414;44.534;18.700;2023-04-03T00:45:30;10.00;99.90
25512;DHT22;13414;44.534;18.700;2023-04-03T00:47:58;9.90;99.90
25512;DHT22;13414;44.534;18.700;2023-04-03T00:50:28;9.80;99.90
25512;DHT22;13414;44.534;18.700;2023-04-03T00:52:56;9.80;99.90
25512;DHT22;13414;44.534;18.700;2023-04-03T00:55:24;9.70;99.90
25512;DHT22;13414;44.534;18.700;2023-04-03T00:57:52;9.80;99.90
25512;DHT22;13414;44.534;18.700;2023-04-03T01:00:21;9.70;99.90
25512;DHT22;13414;44.534;18.700;2023-04-03T01:02:51;9.70;99.90
25512;DHT22;13414;44.534;18.700;2023-04-03T01:05:20;9.60;99.90
25512;DHT22;13414;44.534;18.700;2023-04-03T01:07:49;9.60;99.90
25512;DHT22;13414;44.534;18.700;2023-04-03T01:10:19;9.70;99.90
25512;DHT22;13414;44.534;18.700;2023-04-03T01:12:49;9.60;99.90
25512;DHT22;13414;44.534;18.700;2023-04-03T01:15:22;9.60;99.90
25512;DHT22;13414;44.534;18.700;2023-04-03T01:17:52;9.50;99.90
25512;DHT22;13414;44.534;18.700;2023-04-03T01:23:45;9.50;99.90
25512;DHT22;13414;44.534;18.700;2023-04-03T01:26:15;9.40;99.90
25512;DHT22;13414;44.534;18.700;2023-04-03T01:28:42;9.30;99.90
25512;DHT22;13414;44.534;18.700;2023-04-03T01:31:15;9.30;99.90
25512;DHT22;13414;44.534;18.700;2023-04-03T01:33:47;9.30;99.90
25512;DHT22;13414;44.534;18.700;2023-04-03T01:36:17;9.20;99.90
25512;DHT22;13414;44.534;18.700;2023-04-03T01:38:46;9.10;99.90
25512;DHT22;13414;44.534;18.700;2023-04-03T01:41:14;9.10;99.90
25512;DHT22;13414;44.534;18.700;2023-04-03T01:43:43;9.00;99.90
25512;DHT22;13414;44.534;18.700;2023-04-03T01:46:11;9.00;99.90
25512;DHT22;13414;44.534;18.700;2023-04-03T01:48:38;8.90;99.90
25512;DHT22;13414;44.534;18.700;2023-04-03T01:51:07;8.80;99.90
25512;DHT22;13414;44.534;18.700;2023-04-03T01:53:35;8.80;99.90
25512;DHT22;13414;44.534;18.700;2023-04-03T01:56:03;8.80;99.90
25512;DHT22;13414;44.534;18.700;2023-04-03T01:58:32;8.80;99.90
25512;DHT22;13414;44.534;18.700;2023-04-03T02:01:00;8.70;99.90
25512;DHT22;13414;44.534;18.700;2023-04-03T02:03:28;8.60;99.90
25512;DHT22;13414;44.534;18.700;2023-04-03T02:05:56;8.60;99.90
25512;DHT22;13414;44.534;18.700;2023-04-03T02:08:25;8.40;99.90
25512;DHT22;13414;44.534;18.700;2023-04-03T02:10:53;8.30;99.90
25512;DHT22;13414;44.534;18.700;2023-04-03T02:13:20;8.30;99.90
25512;DHT22;13414;44.534;18.700;2023-04-03T02:15:49;8.30;99.90
25512;DHT22;13414;44.534;18.700;2023-04-03T02:18:16;8.30;99.90
25512;DHT22;13414;44.534;18.700;2023-04-03T02:20:44;8.30;99.90
25512;DHT22;13414;44.534;18.700;2023-04-03T02:23:13;8.20;99.90
25512;DHT22;13414;44.534;18.700;2023-04-03T02:25:42;8.30;99.90
25512;DHT22;13414;44.534;18.700;2023-04-03T02:28:11;8.20;99.90
25512;DHT22;13414;44.534;18.700;2023-04-03T02:30:39;8.20;99.90
25512;DHT22;13414;44.534;18.700;2023-04-03T02:33:07;8.30;99.90
25512;DHT22;13414;44.534;18.700;2023-04-03T02:35:34;8.20;99.90
25512;DHT22;13414;44.534;18.700;2023-04-03T02:38:02;8.20;99.90
25512;DHT22;13414;44.534;18.700;2023-04-03T02:40:30;8.10;99.90
25512;DHT22;13414;44.534;18.700;2023-04-03T02:42:59;8.00;99.90
25512;DHT22;13414;44.534;18.700;2023-04-03T02:45:26;8.00;99.90
25512;DHT22;13414;44.534;18.700;2023-04-03T02:47:54;8.00;99.90
25512;DHT22;13414;44.534;18.700;2023-04-03T02:50:21;8.00;99.90
25512;DHT22;13414;44.534;18.700;2023-04-03T02:52:49;7.90;99.90
25512;DHT22;13414;44.534;18.700;2023-04-03T02:55:16;7.90;99.90
25512;DHT22;13414;44.534;18.700;2023-04-03T02:57:47;7.80;99.90
25512;DHT22;13414;44.534;18.700;2023-04-03T03:00:17;7.70;99.90
25512;DHT22;13414;44.534;18.700;2023-04-03T03:02:44;7.60;99.90
25512;DHT22;13414;44.534;18.700;2023-04-03T03:05:12;7.60;99.90
25512;DHT22;13414;44.534;18.700;2023-04-03T03:07:39;7.60;99.90
25512;DHT22;13414;44.534;18.700;2023-04-03T03:10:08;7.60;99.90
25512;DHT22;13414;44.534;18.700;2023-04-03T03:12:35;7.70;99.90
25512;DHT22;13414;44.534;18.700;2023-04-03T03:15:03;7.60;99.90
25512;DHT22;13414;44.534;18.700;2023-04-03T03:17:32;7.60;99.90
25512;DHT22;13414;44.534;18.700;2023-04-03T03:20:01;7.60;99.90
25512;DHT22;13414;44.534;18.700;2023-04-03T03:22:29;7.60;99.90
25512;DHT22;13414;44.534;18.700;2023-04-03T03:24:57;7.60;99.90
25512;DHT22;13414;44.534;18.700;2023-04-03T03:27:25;7.50;99.90
25512;DHT22;13414;44.534;18.700;2023-04-03T03:29:52;7.50;99.90
25512;DHT22;13414;44.534;18.700;2023-04-03T03:32:21;7.50;99.90
25512;DHT22;13414;44.534;18.700;2023-04-03T03:34:50;7.50;99.90
25512;DHT22;13414;44.534;18.700;2023-04-03T03:37:17;7.50;99.90
25512;DHT22;13414;44.534;18.700;2023-04-03T03:39:45;7.50;99.90
25512;DHT22;13414;44.534;18.700;2023-04-03T03:42:12;7.50;99.90
25512;DHT22;13414;44.534;18.700;2023-04-03T03:44:40;7.50;99.90
25512;DHT22;13414;44.534;18.700;2023-04-03T03:47:08;7.50;99.90
25512;DHT22;13414;44.534;18.700;2023-04-03T03:49:37;7.40;99.90
25512;DHT22;13414;44.534;18.700;2023-04-03T03:52:06;7.30;99.90
25512;DHT22;13414;44.534;18.700;2023-04-03T03:54:36;7.30;99.90
25512;DHT22;13414;44.534;18.700;2023-04-03T03:57:05;7.10;99.90
25512;DHT22;13414;44.534;18.700;2023-04-03T03:59:32;6.90;99.90
25512;DHT22;13414;44.534;18.700;2023-04-03T04:02:00;6.80;99.90
25512;DHT22;13414;44.534;18.700;2023-04-03T04:04:28;6.80;99.90
25512;DHT22;13414;44.534;18.700;2023-04-03T04:06:56;6.70;99.90
25512;DHT22;13414;44.534;18.700;2023-04-03T04:09:25;6.60;99.90
25512;DHT22;13414;44.534;18.700;2023-04-03T04:11:53;6.50;99.90
25512;DHT22;13414;44.534;18.700;2023-04-03T04:14:20;6.30;99.90
25512;DHT22;13414;44.534;18.700;2023-04-03T04:16:49;6.00;99.90
25512;DHT22;13414;44.534;18.700;2023-04-03T04:19:22;5.80;99.90
25512;DHT22;13414;44.534;18.700;2023-04-03T04:21:49;5.60;99.90
25512;DHT22;13414;44.534;18.700;2023-04-03T04:24:17;5.50;99.90
25512;DHT22;13414;44.534;18.700;2023-04-03T04:26:48;5.40;99.90
25512;DHT22;13414;44.534;18.700;2023-04-03T04:29:17;5.40;99.90
25512;DHT22;13414;44.534;18.700;2023-04-03T04:31:50;5.30;99.90
25512;DHT22;13414;44.534;18.700;2023-04-03T04:34:18;5.10;99.90
25512;DHT22;13414;44.534;18.700;2023-04-03T04:36:46;4.90;99.90
25512;DHT22;13414;44.534;18.700;2023-04-03T04:39:14;5.00;99.90
25512;DHT22;13414;44.534;18.700;2023-04-03T04:41:41;5.00;99.90
25512;DHT22;13414;44.534;18.700;2023-04-03T04:44:11;4.90;99.90
25512;DHT22;13414;44.534;18.700;2023-04-03T04:46:39;4.90;99.90
25512;DHT22;13414;44.534;18.700;2023-04-03T04:49:07;4.80;99.90
25512;DHT22;13414;44.534;18.700;2023-04-03T04:51:35;4.90;99.90
25512;DHT22;13414;44.534;18.700;2023-04-03T04:54:03;4.90;99.90
25512;DHT22;13414;44.534;18.700;2023-04-03T04:56:31;4.70;99.90
25512;DHT22;13414;44.534;18.700;2023-04-03T04:58:59;4.60;99.90
25512;DHT22;13414;44.534;18.700;2023-04-03T05:01:28;4.50;99.90
25512;DHT22;13414;44.534;18.700;2023-04-03T05:04:22;4.50;99.90
25512;DHT22;13414;44.534;18.700;2023-04-03T05:06:53;4.50;99.90
25512;DHT22;13414;44.534;18.700;2023-04-03T05:09:24;4.60;99.90
25512;DHT22;13414;44.534;18.700;2023-04-03T05:11:53;4.60;99.90
25512;DHT22;13414;44.534;18.700;2023-04-03T05:14:23;4.70;99.90
25512;DHT22;13414;44.534;18.700;2023-04-03T05:16:54;4.70;99.90
25512;DHT22;13414;44.534;18.700;2023-04-03T05:19:25;4.70;99.90
25512;DHT22;13414;44.534;18.700;2023-04-03T05:21:52;4.70;99.90
25512;DHT22;13414;44.534;18.700;2023-04-03T05:24:21;4.60;99.90
25512;DHT22;13414;44.534;18.700;2023-04-03T05:26:48;4.50;99.90
25512;DHT22;13414;44.534;18.700;2023-04-03T05:29:16;4.50;99.90
25512;DHT22;13414;44.534;18.700;2023-04-03T05:31:45;4.50;99.90
25512;DHT22;13414;44.534;18.700;2023-04-03T05:34:14;4.60;99.90
25512;DHT22;13414;44.534;18.700;2023-04-03T05:36:43;4.50;99.90
25512;DHT22;13414;44.534;18.700;2023-04-03T05:39:12;4.50;99.90
25512;DHT22;13414;44.534;18.700;2023-04-03T05:41:42;4.60;99.90
25512;DHT22;13414;44.534;18.700;2023-04-03T05:44:10;4.60;99.90
25512;DHT22;13414;44.534;18.700;2023-04-03T05:46:37;4.60;99.90
25512;DHT22;13414;44.534;18.700;2023-04-03T05:49:08;4.60;99.90
25512;DHT22;13414;44.534;18.700;2023-04-03T05:51:38;4.50;99.90
25512;DHT22;13414;44.534;18.700;2023-04-03T05:54:32;4.60;99.90
25512;DHT22;13414;44.534;18.700;2023-04-03T05:57:23;4.60;99.90
25512;DHT22;13414;44.534;18.700;2023-04-03T05:59:51;4.60;99.90
25512;DHT22;13414;44.534;18.700;2023-04-03T06:02:22;4.70;99.90
25512;DHT22;13414;44.534;18.700;2023-04-03T06:04:51;4.70;99.90
25512;DHT22;13414;44.534;18.700;2023-04-03T06:07:22;4.80;99.90
25512;DHT22;13414;44.534;18.700;2023-04-03T06:09:50;4.90;99.90
25512;DHT22;13414;44.534;18.700;2023-04-03T06:12:18;5.00;99.90
25512;DHT22;13414;44.534;18.700;2023-04-03T06:14:47;5.00;99.90
25512;DHT22;13414;44.534;18.700;2023-04-03T06:17:15;5.10;99.90
25512;DHT22;13414;44.534;18.700;2023-04-03T06:19:43;5.10;99.90
25512;DHT22;13414;44.534;18.700;2023-04-03T06:22:12;5.10;99.90
25512;DHT22;13414;44.534;18.700;2023-04-03T06:24:41;5.10;99.90
25512;DHT22;13414;44.534;18.700;2023-04-03T06:27:10;5.30;99.90
25512;DHT22;13414;44.534;18.700;2023-04-03T06:29:38;5.40;99.90
25512;DHT22;13414;44.534;18.700;2023-04-03T06:32:06;5.50;99.90
25512;DHT22;13414;44.534;18.700;2023-04-03T06:34:33;5.50;99.90
25512;DHT22;13414;44.534;18.700;2023-04-03T06:37:01;5.60;99.90
25512;DHT22;13414;44.534;18.700;2023-04-03T06:39:28;5.60;99.90
25512;DHT22;13414;44.534;18.700;2023-04-03T06:41:57;5.50;99.90
25512;DHT22;13414;44.534;18.700;2023-04-03T06:44:32;5.40;99.90
25512;DHT22;13414;44.534;18.700;2023-04-03T06:47:01;5.50;99.90
25512;DHT22;13414;44.534;18.700;2023-04-03T06:49:28;5.50;99.90
25512;DHT22;13414;44.534;18.700;2023-04-03T06:51:56;5.50;99.90
25512;DHT22;13414;44.534;18.700;2023-04-03T06:54:23;5.50;99.90
25512;DHT22;13414;44.534;18.700;2023-04-03T06:56:51;5.60;99.90
25512;DHT22;13414;44.534;18.700;2023-04-03T06:59:20;5.70;99.90
25512;DHT22;13414;44.534;18.700;2023-04-03T07:01:47;5.70;99.90
25512;DHT22;13414;44.534;18.700;2023-04-03T07:04:15;5.80;99.90
25512;DHT22;13414;44.534;18.700;2023-04-03T07:06:43;5.90;99.90
25512;DHT22;13414;44.534;18.700;2023-04-03T07:09:10;6.00;99.90
25512;DHT22;13414;44.534;18.700;2023-04-03T07:11:38;6.00;99.90
25512;DHT22;13414;44.534;18.700;2023-04-03T07:14:06;6.00;99.90
25512;DHT22;13414;44.534;18.700;2023-04-03T07:16:35;6.10;99.90
25512;DHT22;13414;44.534;18.700;2023-04-03T07:19:03;6.10;99.90
25512;DHT22;13414;44.534;18.700;2023-04-03T07:21:30;6.20;99.90
25512;DHT22;13414;44.534;18.700;2023-04-03T07:23:58;6.30;99.90
25512;DHT22;13414;44.534;18.700;2023-04-03T07:26:25;6.30;99.90
25512;DHT22;13414;44.534;18.700;2023-04-03T07:28:53;6.40;99.90
25512;DHT22;13414;44.534;18.700;2023-04-03T07:31:20;6.50;99.90
25512;DHT22;13414;44.534;18.700;2023-04-03T07:33:50;6.50;99.90
25512;DHT22;13414;44.534;18.700;2023-04-03T07:36:19;6.50;99.90
25512;DHT22;13414;44.534;18.700;2023-04-03T07:38:47;6.30;99.90
25512;DHT22;13414;44.534;18.700;2023-04-03T07:41:15;6.30;99.90
25512;DHT22;13414;44.534;18.700;2023-04-03T07:43:43;6.30;99.90
25512;DHT22;13414;44.534;18.700;2023-04-03T07:46:11;6.30;99.90
25512;DHT22;13414;44.534;18.700;2023-04-03T07:48:38;6.30;99.90
25512;DHT22;13414;44.534;18.700;2023-04-03T07:51:07;6.40;99.90
25512;DHT22;13414;44.534;18.700;2023-04-03T07:53:35;6.50;99.90
25512;DHT22;13414;44.534;18.700;2023-04-03T07:56:03;6.50;99.90
25512;DHT22;13414;44.534;18.700;2023-04-03T07:58:30;6.60;99.90
25512;DHT22;13414;44.534;18.700;2023-04-03T08:01:00;6.70;99.90
25512;DHT22;13414;44.534;18.700;2023-04-03T08:03:29;6.70;99.90
25512;DHT22;13414;44.534;18.700;2023-04-03T08:06:02;6.70;99.90
25512;DHT22;13414;44.534;18.700;2023-04-03T08:08:31;6.80;99.90
25512;DHT22;13414;44.534;18.700;2023-04-03T08:11:00;6.90;99.90
25512;DHT22;13414;44.534;18.700;2023-04-03T08:13:31;6.90;99.90
25512;DHT22;13414;44.534;18.700;2023-04-03T08:16:08;7.00;99.90
25512;DHT22;13414;44.534;18.700;2023-04-03T08:18:35;7.10;99.90
25512;DHT22;13414;44.534;18.700;2023-04-03T08:21:06;7.10;99.90
25512;DHT22;13414;44.534;18.700;2023-04-03T08:23:36;7.00;99.90
25512;DHT22;13414;44.534;18.700;2023-04-03T08:26:08;7.00;99.90
25512;DHT22;13414;44.534;18.700;2023-04-03T08:28:36;6.90;99.90
25512;DHT22;13414;44.534;18.700;2023-04-03T08:31:05;6.80;99.90
25512;DHT22;13414;44.534;18.700;2023-04-03T08:33:34;6.70;99.90
25512;DHT22;13414;44.534;18.700;2023-04-03T08:36:04;6.60;99.90
25512;DHT22;13414;44.534;18.700;2023-04-03T08:38:32;6.70;99.90
25512;DHT22;13414;44.534;18.700;2023-04-03T08:41:07;6.70;99.90
25512;DHT22;13414;44.534;18.700;2023-04-03T08:43:43;6.70;99.90
25512;DHT22;13414;44.534;18.700;2023-04-03T08:46:14;6.80;99.90
25512;DHT22;13414;44.534;18.700;2023-04-03T08:48:44;6.80;99.90
25512;DHT22;13414;44.534;18.700;2023-04-03T08:51:14;6.80;99.90
25512;DHT22;13414;44.534;18.700;2023-04-03T08:53:44;6.70;99.90
25512;DHT22;13414;44.534;18.700;2023-04-03T08:56:15;6.80;99.90
25512;DHT22;13414;44.534;18.700;2023-04-03T08:58:49;6.80;99.90
25512;DHT22;13414;44.534;18.700;2023-04-03T09:01:21;6.80;99.90
25512;DHT22;13414;44.534;18.700;2023-04-03T09:03:50;6.80;99.90
25512;DHT22;13414;44.534;18.700;2023-04-03T09:06:21;6.70;99.90
25512;DHT22;13414;44.534;18.700;2023-04-03T09:08:54;6.70;99.90
25512;DHT22;13414;44.534;18.700;2023-04-03T09:11:25;6.80;99.90
25512;DHT22;13414;44.534;18.700;2023-04-03T09:13:57;6.80;99.90
25512;DHT22;13414;44.534;18.700;2023-04-03T09:16:36;6.80;99.90
25512;DHT22;13414;44.534;18.700;2023-04-03T09:19:15;7.00;99.90
25512;DHT22;13414;44.534;18.700;2023-04-03T09:21:44;7.10;99.90
25512;DHT22;13414;44.534;18.700;2023-04-03T09:24:13;7.00;99.90
25512;DHT22;13414;44.534;18.700;2023-04-03T09:26:46;7.00;99.90
25512;DHT22;13414;44.534;18.700;2023-04-03T09:29:20;7.10;99.90
25512;DHT22;13414;44.534;18.700;2023-04-03T09:31:49;7.10;99.90
25512;DHT22;13414;44.534;18.700;2023-04-03T09:34:20;7.20;99.90
25512;DHT22;13414;44.534;18.700;2023-04-03T09:36:51;7.30;99.90
25512;DHT22;13414;44.534;18.700;2023-04-03T09:39:20;7.30;99.90
25512;DHT22;13414;44.534;18.700;2023-04-03T09:42:01;7.30;99.90
25512;DHT22;13414;44.534;18.700;2023-04-03T09:44:30;7.10;99.90
25512;DHT22;13414;44.534;18.700;2023-04-03T09:46:59;7.00;99.90
25512;DHT22;13414;44.534;18.700;2023-04-03T09:49:26;7.00;99.90
25512;DHT22;13414;44.534;18.700;2023-04-03T09:51:54;7.20;99.90
25512;DHT22;13414;44.534;18.700;2023-04-03T09:54:34;7.40;99.90
25512;DHT22;13414;44.534;18.700;2023-04-03T09:57:10;7.50;99.90
25512;DHT22;13414;44.534;18.700;2023-04-03T09:59:55;7.70;99.90
25512;DHT22;13414;44.534;18.700;2023-04-03T10:02:35;7.80;99.90
25512;DHT22;13414;44.534;18.700;2023-04-03T10:05:05;7.70;99.90
25512;DHT22;13414;44.534;18.700;2023-04-03T10:07:53;7.70;99.90
25512;DHT22;13414;44.534;18.700;2023-04-03T10:10:34;7.70;99.90
25512;DHT22;13414;44.534;18.700;2023-04-03T10:13:09;7.70;99.90
25512;DHT22;13414;44.534;18.700;2023-04-03T10:15:41;7.60;99.90
25512;DHT22;13414;44.534;18.700;2023-04-03T10:18:29;7.60;99.90
25512;DHT22;13414;44.534;18.700;2023-04-03T10:21:04;7.60;99.90
25512;DHT22;13414;44.534;18.700;2023-04-03T10:23:39;7.60;99.90
25512;DHT22;13414;44.534;18.700;2023-04-03T10:26:21;7.70;99.90
25512;DHT22;13414;44.534;18.700;2023-04-03T10:28:57;7.70;99.90
25512;DHT22;13414;44.534;18.700;2023-04-03T10:31:34;7.80;99.90
25512;DHT22;13414;44.534;18.700;2023-04-03T10:34:06;7.80;99.90
25512;DHT22;13414;44.534;18.700;2023-04-03T10:36:43;7.80;99.90
25512;DHT22;13414;44.534;18.700;2023-04-03T10:39:20;8.00;99.90
25512;DHT22;13414;44.534;18.700;2023-04-03T10:41:59;7.90;99.90
25512;DHT22;13414;44.534;18.700;2023-04-03T10:44:37;7.90;99.90
25512;DHT22;13414;44.534;18.700;2023-04-03T10:47:15;7.90;99.90
25512;DHT22;13414;44.534;18.700;2023-04-03T10:49:56;8.00;99.90
25512;DHT22;13414;44.534;18.700;2023-04-03T10:52:36;7.90;99.90
25512;DHT22;13414;44.534;18.700;2023-04-03T10:55:18;7.90;99.90
25512;DHT22;13414;44.534;18.700;2023-04-03T10:57:54;8.00;99.90
25512;DHT22;13414;44.534;18.700;2023-04-03T11:00:29;8.10;99.90
25512;DHT22;13414;44.534;18.700;2023-04-03T11:03:01;8.00;99.90
25512;DHT22;13414;44.534;18.700;2023-04-03T11:05:34;7.90;99.90
25512;DHT22;13414;44.534;18.700;2023-04-03T11:08:05;8.00;99.90
25512;DHT22;13414;44.534;18.700;2023-04-03T11:10:39;8.00;99.90
25512;DHT22;13414;44.534;18.700;2023-04-03T11:13:11;7.90;99.90
25512;DHT22;13414;44.534;18.700;2023-04-03T11:15:43;7.80;99.90
25512;DHT22;13414;44.534;18.700;2023-04-03T11:21:16;7.80;99.90
25512;DHT22;13414;44.534;18.700;2023-04-03T11:23:46;7.90;99.90
25512;DHT22;13414;44.534;18.700;2023-04-03T11:26:15;8.10;99.90
25512;DHT22;13414;44.534;18.700;2023-04-03T11:28:44;8.10;99.90
25512;DHT22;13414;44.534;18.700;2023-04-03T11:31:43;8.20;99.90
25512;DHT22;13414;44.534;18.700;2023-04-03T11:34:26;8.00;99.90
25512;DHT22;13414;44.534;18.700;2023-04-03T11:37:01;7.90;99.90
25512;DHT22;13414;44.534;18.700;2023-04-03T11:39:34;7.80;99.90
25512;DHT22;13414;44.534;18.700;2023-04-03T11:42:15;7.70;99.90
25512;DHT22;13414;44.534;18.700;2023-04-03T11:44:44;7.60;99.90
25512;DHT22;13414;44.534;18.700;2023-04-03T11:47:45;7.50;99.90
25512;DHT22;13414;44.534;18.700;2023-04-03T11:50:39;7.50;99.90
25512;DHT22;13414;44.534;18.700;2023-04-03T11:53:31;7.50;99.90
25512;DHT22;13414;44.534;18.700;2023-04-03T11:59:15;7.50;99.90
25512;DHT22;13414;44.534;18.700;2023-04-03T12:01:45;7.60;99.90
25512;DHT22;13414;44.534;18.700;2023-04-03T12:04:16;7.50;99.90
25512;DHT22;13414;44.534;18.700;2023-04-03T12:07:12;7.50;99.90
25512;DHT22;13414;44.534;18.700;2023-04-03T12:10:13;7.40;99.90
25512;DHT22;13414;44.534;18.700;2023-04-03T12:12:42;7.30;99.90
25512;DHT22;13414;44.534;18.700;2023-04-03T12:15:20;7.40;99.90
25512;DHT22;13414;44.534;18.700;2023-04-03T12:17:49;7.30;99.90
25512;DHT22;13414;44.534;18.700;2023-04-03T12:20:54;7.20;99.90
25512;DHT22;13414;44.534;18.700;2023-04-03T12:23:30;7.20;99.90
25512;DHT22;13414;44.534;18.700;2023-04-03T12:26:18;7.20;99.90
25512;DHT22;13414;44.534;18.700;2023-04-03T12:28:48;7.10;99.90
25512;DHT22;13414;44.534;18.700;2023-04-03T12:31:19;7.20;99.90
25512;DHT22;13414;44.534;18.700;2023-04-03T12:34:01;7.20;99.90
25512;DHT22;13414;44.534;18.700;2023-04-03T12:36:40;7.20;99.90
25512;DHT22;13414;44.534;18.700;2023-04-03T12:42:51;7.20;99.90
25512;DHT22;13414;44.534;18.700;2023-04-03T12:45:23;7.10;99.90
25512;DHT22;13414;44.534;18.700;2023-04-03T12:47:52;7.10;99.90
25512;DHT22;13414;44.534;18.700;2023-04-03T12:50:23;7.20;99.90
25512;DHT22;13414;44.534;18.700;2023-04-03T12:52:57;7.30;99.90
25512;DHT22;13414;44.534;18.700;2023-04-03T12:55:26;7.40;99.90
25512;DHT22;13414;44.534;18.700;2023-04-03T12:57:53;7.40;99.90
25512;DHT22;13414;44.534;18.700;2023-04-03T13:00:30;7.30;99.90
25512;DHT22;13414;44.534;18.700;2023-04-03T13:02:59;7.30;99.90
25512;DHT22;13414;44.534;18.700;2023-04-03T13:05:28;7.30;99.90
25512;DHT22;13414;44.534;18.700;2023-04-03T13:07:59;7.20;99.90
25512;DHT22;13414;44.534;18.700;2023-04-03T13:10:29;7.20;99.90
25512;DHT22;13414;44.534;18.700;2023-04-03T13:12:58;7.30;99.90
25512;DHT22;13414;44.534;18.700;2023-04-03T13:15:29;7.40;99.90
25512;DHT22;13414;44.534;18.700;2023-04-03T13:17:57;7.50;99.90
25512;DHT22;13414;44.534;18.700;2023-04-03T13:20:27;7.50;99.90
25512;DHT22;13414;44.534;18.700;2023-04-03T13:23:00;7.60;99.90
25512;DHT22;13414;44.534;18.700;2023-04-03T13:25:33;7.50;99.90
25512;DHT22;13414;44.534;18.700;2023-04-03T13:28:06;7.50;99.90
25512;DHT22;13414;44.534;18.700;2023-04-03T13:30:36;7.60;99.90
25512;DHT22;13414;44.534;18.700;2023-04-03T13:33:06;7.60;99.90
25512;DHT22;13414;44.534;18.700;2023-04-03T13:35:46;7.60;99.90
25512;DHT22;13414;44.534;18.700;2023-04-03T13:38:25;7.60;99.90
25512;DHT22;13414;44.534;18.700;2023-04-03T13:40:54;7.60;99.90
25512;DHT22;13414;44.534;18.700;2023-04-03T13:43:25;7.60;99.90
25512;DHT22;13414;44.534;18.700;2023-04-03T13:46:20;7.60;99.90
25512;DHT22;13414;44.534;18.700;2023-04-03T13:48:49;7.60;99.90
25512;DHT22;13414;44.534;18.700;2023-04-03T13:51:22;7.70;99.90
25512;DHT22;13414;44.534;18.700;2023-04-03T13:53:54;7.70;99.90
25512;DHT22;13414;44.534;18.700;2023-04-03T13:56:30;7.70;99.90
25512;DHT22;13414;44.534;18.700;2023-04-03T13:59:18;7.70;99.90
25512;DHT22;13414;44.534;18.700;2023-04-03T14:01:52;7.80;99.90
25512;DHT22;13414;44.534;18.700;2023-04-03T14:04:22;7.90;99.90
25512;DHT22;13414;44.534;18.700;2023-04-03T14:06:50;8.00;99.90
25512;DHT22;13414;44.534;18.700;2023-04-03T14:09:20;8.00;99.90
25512;DHT22;13414;44.534;18.700;2023-04-03T14:11:49;8.00;99.90
25512;DHT22;13414;44.534;18.700;2023-04-03T14:14:19;8.10;99.90
25512;DHT22;13414;44.534;18.700;2023-04-03T14:16:50;8.00;99.90
25512;DHT22;13414;44.534;18.700;2023-04-03T14:19:22;7.90;99.90
25512;DHT22;13414;44.534;18.700;2023-04-03T14:21:51;7.90;99.90
25512;DHT22;13414;44.534;18.700;2023-04-03T14:24:21;7.80;99.90
25512;DHT22;13414;44.534;18.700;2023-04-03T14:26:49;7.80;99.90
25512;DHT22;13414;44.534;18.700;2023-04-03T14:29:18;7.90;99.90
25512;DHT22;13414;44.534;18.700;2023-04-03T14:31:47;7.90;99.90
25512;DHT22;13414;44.534;18.700;2023-04-03T14:34:16;8.00;99.90
25512;DHT22;13414;44.534;18.700;2023-04-03T14:36:45;8.00;99.90
25512;DHT22;13414;44.534;18.700;2023-04-03T14:39:17;8.10;99.90
25512;DHT22;13414;44.534;18.700;2023-04-03T14:41:47;8.00;99.90
25512;DHT22;13414;44.534;18.700;2023-04-03T14:44:14;8.00;99.90
25512;DHT22;13414;44.534;18.700;2023-04-03T14:46:43;8.00;99.90
25512;DHT22;13414;44.534;18.700;2023-04-03T14:49:14;8.00;99.90
25512;DHT22;13414;44.534;18.700;2023-04-03T14:51:43;8.00;99.90
25512;DHT22;13414;44.534;18.700;2023-04-03T14:54:13;8.10;99.90
25512;DHT22;13414;44.534;18.700;2023-04-03T14:56:41;8.10;99.90
25512;DHT22;13414;44.534;18.700;2023-04-03T14:59:12;8.10;99.90
25512;DHT22;13414;44.534;18.700;2023-04-03T15:01:40;8.10;99.90
25512;DHT22;13414;44.534;18.700;2023-04-03T15:04:11;8.00;99.90
25512;DHT22;13414;44.534;18.700;2023-04-03T15:06:40;8.00;99.90
25512;DHT22;13414;44.534;18.700;2023-04-03T15:09:15;8.00;99.90
25512;DHT22;13414;44.534;18.700;2023-04-03T15:11:45;8.00;99.90
25512;DHT22;13414;44.534;18.700;2023-04-03T15:14:14;7.90;99.90
25512;DHT22;13414;44.534;18.700;2023-04-03T15:16:42;7.90;99.90
25512;DHT22;13414;44.534;18.700;2023-04-03T15:19:10;7.80;99.90
25512;DHT22;13414;44.534;18.700;2023-04-03T15:21:38;7.80;99.90
25512;DHT22;13414;44.534;18.700;2023-04-03T15:24:06;7.80;99.90
25512;DHT22;13414;44.534;18.700;2023-04-03T15:26:34;7.70;99.90
25512;DHT22;13414;44.534;18.700;2023-04-03T15:29:01;7.70;99.90
25512;DHT22;13414;44.534;18.700;2023-04-03T15:31:30;7.70;99.90
25512;DHT22;13414;44.534;18.700;2023-04-03T15:33:58;7.70;99.90
25512;DHT22;13414;44.534;18.700;2023-04-03T15:36:26;7.60;99.90
25512;DHT22;13414;44.534;18.700;2023-04-03T15:38:53;7.60;99.90
25512;DHT22;13414;44.534;18.700;2023-04-03T15:41:21;7.60;99.90
25512;DHT22;13414;44.534;18.700;2023-04-03T15:43:48;7.60;99.90
25512;DHT22;13414;44.534;18.700;2023-04-03T15:46:16;7.50;99.90
25512;DHT22;13414;44.534;18.700;2023-04-03T15:48:45;7.50;99.90
25512;DHT22;13414;44.534;18.700;2023-04-03T15:51:12;7.50;99.90
25512;DHT22;13414;44.534;18.700;2023-04-03T15:53:40;7.50;99.90
25512;DHT22;13414;44.534;18.700;2023-04-03T15:56:08;7.50;99.90
25512;DHT22;13414;44.534;18.700;2023-04-03T15:58:36;7.40;99.90
25512;DHT22;13414;44.534;18.700;2023-04-03T16:01:03;7.50;99.90
25512;DHT22;13414;44.534;18.700;2023-04-03T16:03:31;7.50;99.90
25512;DHT22;13414;44.534;18.700;2023-04-03T16:06:00;7.40;99.90